Time;durP1;ratioP1;P1;durP2;ratioP2;P2;SDS_P1;SDS_P2;PMS_P1;PMS_P2;Temp;Humidity;BMP_temperature;BMP_pressure;BME280_temperature;BME280_humidity;BME280_pressure;Samples;Min_cycle;Max_cycle;Signal;HPM_P1;HPM_P2
2021/05/01 00:01:33;;;;;;;35.25;19.75;;;9.00;99.90;;;;;;5032345;28;20246;-75
2021/05/01 00:04:00;;;;;;;32.80;19.20;;;9.00;99.90;;;;;;5036314;28;20698;-80
2021/05/01 00:06:26;;;;;;;39.55;19.90;;;9.00;99.90;;;;;;5038909;28;20228;-77
2021/05/01 00:08:52;;;;;;;35.88;18.70;;;9.00;99.90;;;;;;5038846;28;20749;-77
2021/05/01 00:11:21;;;;;;;44.53;22.35;;;9.00;99.90;;;;;;5037502;28;20242;-78
2021/05/01 00:13:48;;;;;;;33.90;20.23;;;9.00;99.90;;;;;;5039838;28;20234;-77
2021/05/01 00:16:14;;;;;;;30.92;18.92;;;9.10;99.90;;;;;;5037650;28;20290;-76
2021/05/01 00:18:41;;;;;;;34.08;18.42;;;9.00;99.90;;;;;;5035931;28;20666;-77
2021/05/01 00:21:07;;;;;;;35.22;18.55;;;9.10;99.90;;;;;;5036130;28;20629;-75
2021/05/01 00:23:33;;;;;;;37.55;18.70;;;9.10;99.90;;;;;;5035922;28;20224;-77
2021/05/01 00:26:00;;;;;;;31.15;19.45;;;9.10;99.90;;;;;;5035817;28;20667;-73
2021/05/01 00:28:27;;;;;;;33.22;19.67;;;9.10;99.90;;;;;;5035976;28;20203;-72
2021/05/01 00:30:53;;;;;;;30.60;18.60;;;9.20;99.90;;;;;;5036038;28;20203;-72
2021/05/01 00:33:20;;;;;;;36.42;19.20;;;9.20;99.90;;;;;;5034298;28;20228;-72
2021/05/01 00:35:46;;;;;;;31.55;19.73;;;9.20;99.90;;;;;;5034386;28;20204;-73
2021/05/01 00:38:13;;;;;;;36.40;21.10;;;9.20;99.90;;;;;;5034465;28;20350;-72
2021/05/01 00:40:39;;;;;;;36.38;19.92;;;9.10;99.90;;;;;;5034283;28;20295;-72
2021/05/01 00:43:05;;;;;;;37.50;19.65;;;9.20;99.90;;;;;;5034414;28;20227;-72
2021/05/01 00:45:33;;;;;;;38.03;20.08;;;9.30;99.90;;;;;;5034494;28;20199;-73
2021/05/01 00:47:59;;;;;;;38.65;20.65;;;9.30;99.90;;;;;;5034218;28;20208;-73
2021/05/01 00:50:25;;;;;;;32.63;19.05;;;9.30;99.90;;;;;;5034135;28;20343;-73
2021/05/01 00:52:52;;;;;;;32.65;18.70;;;9.30;99.90;;;;;;5034139;28;20638;-72
2021/05/01 00:55:18;;;;;;;38.65;20.83;;;9.20;99.90;;;;;;5034343;28;20310;-73
2021/05/01 00:57:45;;;;;;;33.58;18.75;;;9.20;99.90;;;;;;5034215;28;20208;-74
2021/05/01 01:00:26;;;;;;;33.53;19.58;;;9.20;99.90;;;;;;5034398;28;20204;-72
2021/05/01 01:02:56;;;;;;;36.50;21.20;;;9.10;99.90;;;;;;5033866;28;20315;-73
2021/05/01 01:05:23;;;;;;;33.80;20.95;;;9.10;99.90;;;;;;5034029;28;20240;-73
2021/05/01 01:07:49;;;;;;;38.30;21.27;;;8.90;99.90;;;;;;5033819;28;20239;-74
2021/05/01 01:10:16;;;;;;;38.25;21.13;;;8.80;99.90;;;;;;5034138;28;20212;-74
2021/05/01 01:12:42;;;;;;;46.63;25.27;;;8.80;99.90;;;;;;5033884;28;20223;-76
2021/05/01 01:15:10;;;;;;;41.03;21.30;;;8.80;99.90;;;;;;5034432;28;20294;-77
2021/05/01 01:17:36;;;;;;;46.13;23.30;;;9.00;99.90;;;;;;5035279;28;20294;-76
2021/05/01 01:20:05;;;;;;;41.83;23.73;;;9.10;99.90;;;;;;5035500;28;20200;-76
2021/05/01 01:22:32;;;;;;;40.13;22.08;;;9.20;99.90;;;;;;5035134;28;20287;-77
2021/05/01 01:24:58;;;;;;;45.33;25.60;;;9.10;99.90;;;;;;5035283;28;20310;-76
2021/05/01 01:27:25;;;;;;;46.50;24.98;;;9.20;99.90;;;;;;5035075;28;20277;-76
2021/05/01 01:29:51;;;;;;;44.28;23.50;;;9.10;99.90;;;;;;5035074;28;20204;-75
2021/05/01 01:32:17;;;;;;;47.33;23.55;;;9.10;99.90;;;;;;5014669;28;588705;-75
2021/05/01 01:34:45;;;;;;;44.72;24.08;;;9.10;99.90;;;;;;5035630;28;20259;-76
2021/05/01 01:37:12;;;;;;;41.17;22.48;;;9.20;99.90;;;;;;5035772;28;20287;-75
2021/05/01 01:39:39;;;;;;;44.05;22.92;;;9.30;99.90;;;;;;5035721;28;20712;-75
2021/05/01 01:42:06;;;;;;;41.00;22.65;;;9.30;99.90;;;;;;5035987;28;20204;-76
2021/05/01 01:44:32;;;;;;;39.55;21.90;;;9.30;99.90;;;;;;5035897;28;20748;-76
2021/05/01 01:46:58;;;;;;;45.80;23.38;;;9.20;99.90;;;;;;5035399;28;20299;-76
2021/05/01 01:49:25;;;;;;;47.75;23.58;;;9.20;99.90;;;;;;5035585;28;20717;-76
2021/05/01 01:51:51;;;;;;;47.33;26.05;;;9.20;99.90;;;;;;5035501;28;20220;-76
2021/05/01 01:54:18;;;;;;;41.90;23.45;;;9.30;99.90;;;;;;5035850;28;20255;-76
2021/05/01 01:56:45;;;;;;;45.20;24.80;;;9.20;99.90;;;;;;5035593;28;20211;-76
2021/05/01 01:59:11;;;;;;;44.33;24.25;;;9.10;99.90;;;;;;5035842;28;20558;-76
2021/05/01 02:01:37;;;;;;;46.75;24.92;;;9.20;99.90;;;;;;5035757;28;20287;-76
2021/05/01 02:04:04;;;;;;;53.17;28.13;;;9.30;99.90;;;;;;5035216;28;20270;-75
2021/05/01 02:06:31;;;;;;;50.05;25.23;;;9.10;99.90;;;;;;5035278;28;20208;-76
2021/05/01 02:08:57;;;;;;;50.22;26.48;;;8.90;99.90;;;;;;5035295;28;20231;-75
2021/05/01 02:11:23;;;;;;;52.65;25.75;;;8.70;99.90;;;;;;5035446;28;20211;-75
2021/05/01 02:13:51;;;;;;;52.85;28.35;;;8.40;99.90;;;;;;5035039;28;20234;-75
2021/05/01 02:16:17;;;;;;;54.65;28.30;;;8.30;99.90;;;;;;5035371;28;20287;-75
2021/05/01 02:18:43;;;;;;;55.13;27.20;;;8.20;99.90;;;;;;5034923;28;20643;-76
2021/05/01 02:21:10;;;;;;;53.15;26.25;;;8.10;99.90;;;;;;5034940;28;20287;-75
2021/05/01 02:23:36;;;;;;;54.97;27.13;;;8.00;99.90;;;;;;5035146;28;20255;-76
2021/05/01 02:26:02;;;;;;;57.47;26.83;;;8.00;99.90;;;;;;5034134;28;20638;-76
2021/05/01 02:28:29;;;;;;;56.72;29.33;;;8.00;99.90;;;;;;5035250;28;20669;-75
2021/05/01 02:30:56;;;;;;;57.25;28.90;;;8.00;99.90;;;;;;5035052;28;20246;-75
2021/05/01 02:33:22;;;;;;;59.70;27.75;;;7.90;99.90;;;;;;5034473;28;20734;-75
2021/05/01 02:35:49;;;;;;;59.08;28.80;;;7.90;99.90;;;;;;5034572;28;20276;-75
2021/05/01 02:38:15;;;;;;;62.15;30.08;;;7.90;99.90;;;;;;5034913;28;20250;-75
2021/05/01 02:40:42;;;;;;;61.20;29.00;;;7.90;99.90;;;;;;5034965;28;20200;-75
2021/05/01 02:43:10;;;;;;;60.95;29.05;;;8.00;99.90;;;;;;5035003;28;20311;-76
2021/05/01 02:45:36;;;;;;;56.78;28.45;;;8.00;99.90;;;;;;5035118;28;20291;-76
2021/05/01 02:48:05;;;;;;;55.33;27.90;;;8.00;99.90;;;;;;5034634;28;20207;-75
2021/05/01 02:50:32;;;;;;;59.08;29.02;;;8.00;99.90;;;;;;5034659;28;20204;-75
2021/05/01 02:52:58;;;;;;;60.67;29.23;;;8.00;99.90;;;;;;5034556;28;20236;-76
2021/05/01 02:55:25;;;;;;;56.25;29.48;;;8.00;99.90;;;;;;5034538;28;20294;-76
2021/05/01 02:57:52;;;;;;;52.78;28.90;;;7.90;99.90;;;;;;5034737;28;20653;-75
2021/05/01 03:00:21;;;;;;;51.97;27.52;;;8.00;99.90;;;;;;5034079;28;20204;-75
2021/05/01 03:02:48;;;;;;;53.38;27.65;;;8.10;99.90;;;;;;5034285;28;20283;-76
2021/05/01 03:05:16;;;;;;;52.47;27.02;;;8.20;99.90;;;;;;5034595;28;20290;-75
2021/05/01 03:07:44;;;;;;;59.85;27.50;;;8.30;99.90;;;;;;5034374;28;20215;-75
2021/05/01 03:10:13;;;;;;;56.25;28.90;;;8.30;99.90;;;;;;5034503;28;20298;-75
2021/05/01 03:12:39;;;;;;;53.42;27.45;;;8.40;99.90;;;;;;5034316;28;20227;-76
2021/05/01 03:15:08;;;;;;;51.92;28.27;;;8.60;99.90;;;;;;5034253;28;20265;-75
2021/05/01 03:17:34;;;;;;;54.53;26.45;;;8.60;99.90;;;;;;5033873;28;20715;-76
2021/05/01 03:20:01;;;;;;;47.88;26.35;;;8.60;99.90;;;;;;5034264;28;20243;-75
2021/05/01 03:22:28;;;;;;;47.13;25.80;;;8.70;99.90;;;;;;5034299;28;20204;-76
2021/05/01 03:24:54;;;;;;;43.20;24.20;;;8.70;99.90;;;;;;5034563;28;20224;-75
2021/05/01 03:27:21;;;;;;;46.80;25.33;;;8.80;99.90;;;;;;5033466;28;20231;-76
2021/05/01 03:29:47;;;;;;;46.50;26.08;;;8.90;99.90;;;;;;5033998;28;20291;-75
2021/05/01 03:32:14;;;;;;;46.97;25.35;;;9.00;99.90;;;;;;5033584;28;20228;-76
2021/05/01 03:34:40;;;;;;;42.13;22.55;;;9.00;99.90;;;;;;5034223;28;20362;-75
2021/05/01 03:37:07;;;;;;;41.05;22.15;;;9.00;99.90;;;;;;5033839;28;20204;-75
2021/05/01 03:39:34;;;;;;;43.90;25.05;;;9.00;99.90;;;;;;5034112;28;20235;-75
2021/05/01 03:42:01;;;;;;;40.78;21.70;;;9.00;99.90;;;;;;5033705;28;20283;-76
2021/05/01 03:44:28;;;;;;;38.42;21.88;;;9.00;99.90;;;;;;5033570;28;20234;-75
2021/05/01 03:46:54;;;;;;;40.83;22.17;;;9.00;99.90;;;;;;5033713;28;20208;-76
2021/05/01 03:49:21;;;;;;;40.28;23.10;;;9.10;99.90;;;;;;5033941;28;20349;-75
2021/05/01 03:51:47;;;;;;;40.75;22.92;;;9.10;99.90;;;;;;5033891;28;20295;-75
2021/05/01 03:54:13;;;;;;;41.30;22.10;;;9.00;99.90;;;;;;5033466;28;20269;-75
2021/05/01 03:56:41;;;;;;;39.08;22.13;;;9.00;99.90;;;;;;5033476;28;20255;-76
2021/05/01 03:59:07;;;;;;;39.05;21.40;;;8.90;99.90;;;;;;5033645;28;20200;-76
2021/05/01 04:01:33;;;;;;;40.55;22.00;;;8.90;99.90;;;;;;5033718;28;20653;-75
2021/05/01 04:04:00;;;;;;;39.13;22.00;;;8.90;99.90;;;;;;5033596;28;20224;-76
2021/05/01 04:06:26;;;;;;;49.42;24.02;;;9.00;99.90;;;;;;5033616;28;20630;-75
2021/05/01 04:08:53;;;;;;;43.78;23.48;;;8.80;99.90;;;;;;5033894;28;20722;-76
2021/05/01 04:11:19;;;;;;;49.58;25.52;;;8.80;99.90;;;;;;5033531;28;20208;-75
2021/05/01 04:13:47;;;;;;;50.33;23.60;;;8.80;99.90;;;;;;5033572;28;20720;-75
2021/05/01 04:16:14;;;;;;;53.38;28.35;;;8.90;99.90;;;;;;5033147;28;20200;-75
2021/05/01 04:18:40;;;;;;;55.80;26.98;;;8.70;99.90;;;;;;5033683;28;20208;-75
2021/05/01 04:21:07;;;;;;;53.53;27.45;;;8.50;99.90;;;;;;5033756;28;20555;-75
2021/05/01 04:23:33;;;;;;;53.60;26.52;;;8.40;99.90;;;;;;5033655;28;20270;-75
2021/05/01 04:26:00;;;;;;;55.92;27.52;;;8.40;99.90;;;;;;5032967;28;20316;-75
2021/05/01 04:28:27;;;;;;;62.35;28.80;;;8.30;99.90;;;;;;5033205;28;20299;-75
2021/05/01 04:30:56;;;;;;;55.67;28.10;;;8.20;99.90;;;;;;5033659;28;20211;-75
2021/05/01 04:33:23;;;;;;;58.67;26.55;;;8.20;99.90;;;;;;5033016;28;20231;-75
2021/05/01 04:35:49;;;;;;;55.67;27.55;;;8.20;99.90;;;;;;5033286;28;20726;-75
2021/05/01 04:38:16;;;;;;;64.60;29.02;;;8.10;99.90;;;;;;5032909;28;20346;-75
2021/05/01 04:40:42;;;;;;;61.33;29.65;;;8.10;99.90;;;;;;5033290;28;20236;-75
2021/05/01 04:43:10;;;;;;;64.35;29.63;;;8.10;99.90;;;;;;5033090;28;20220;-75
2021/05/01 04:45:37;;;;;;;55.65;27.35;;;8.10;99.90;;;;;;5033327;28;20208;-75
2021/05/01 04:48:06;;;;;;;59.85;28.20;;;8.10;99.90;;;;;;5033342;28;20584;-75
2021/05/01 04:50:33;;;;;;;55.67;28.00;;;8.10;99.90;;;;;;5035740;28;20204;-75
2021/05/01 04:52:59;;;;;;;58.95;29.80;;;8.10;99.90;;;;;;5036524;28;20693;-75
2021/05/01 04:55:26;;;;;;;56.05;29.00;;;8.10;99.90;;;;;;5036717;28;20345;-75
2021/05/01 04:57:54;;;;;;;67.38;28.02;;;8.10;99.90;;;;;;5036588;28;20214;-75
2021/05/01 05:00:22;;;;;;;58.17;29.23;;;8.00;99.90;;;;;;5036798;28;20716;-75
2021/05/01 05:02:49;;;;;;;59.33;28.30;;;8.10;99.90;;;;;;5036905;28;20297;-75
2021/05/01 05:05:18;;;;;;;60.90;29.10;;;8.10;99.90;;;;;;5036498;28;20212;-75
2021/05/01 05:07:44;;;;;;;60.83;28.38;;;8.20;99.90;;;;;;5036582;28;20200;-75
2021/05/01 05:10:12;;;;;;;63.70;29.80;;;8.30;99.90;;;;;;5036367;28;20208;-75
2021/05/01 05:12:39;;;;;;;56.50;27.60;;;8.30;99.90;;;;;;5036473;28;20306;-75
2021/05/01 05:15:07;;;;;;;57.15;28.85;;;8.50;99.90;;;;;;5036882;28;20623;-75
2021/05/01 05:17:33;;;;;;;54.45;26.80;;;8.60;99.90;;;;;;5036500;28;20207;-75
2021/05/01 05:19:59;;;;;;;60.80;30.55;;;8.50;99.90;;;;;;5036187;28;20299;-75
2021/05/01 05:22:27;;;;;;;56.50;29.10;;;8.50;99.90;;;;;;5036304;28;20612;-75
2021/05/01 05:24:53;;;;;;;72.15;29.00;;;8.50;99.90;;;;;;5036477;28;20315;-75
2021/05/01 05:27:20;;;;;;;56.20;28.73;;;8.50;99.90;;;;;;5036235;28;20204;-75
2021/05/01 05:29:50;;;;;;;58.85;27.65;;;8.40;99.90;;;;;;5036402;28;20211;-75
2021/05/01 05:32:17;;;;;;;57.42;27.58;;;8.40;99.90;;;;;;5035902;28;20281;-76
2021/05/01 05:34:44;;;;;;;52.97;29.10;;;8.50;99.90;;;;;;5036102;28;20630;-75
2021/05/01 05:37:10;;;;;;;56.03;27.73;;;8.70;99.90;;;;;;5035713;28;20210;-75
2021/05/01 05:39:38;;;;;;;53.55;26.70;;;8.80;99.90;;;;;;5036006;28;20299;-75
2021/05/01 05:42:06;;;;;;;47.58;26.52;;;8.90;99.90;;;;;;5036110;28;20200;-75
2021/05/01 05:44:33;;;;;;;47.15;25.13;;;9.10;99.90;;;;;;5036149;28;20259;-75
2021/05/01 05:46:59;;;;;;;50.50;25.45;;;9.00;99.90;;;;;;5035606;28;20206;-75
2021/05/01 05:49:26;;;;;;;48.92;25.92;;;9.20;99.90;;;;;;5035803;28;20210;-75
2021/05/01 05:51:52;;;;;;;50.03;26.13;;;9.10;99.90;;;;;;5035540;28;20253;-75
2021/05/01 05:54:19;;;;;;;47.67;26.30;;;9.10;99.90;;;;;;5036006;28;20323;-75
2021/05/01 05:56:46;;;;;;;54.20;27.25;;;8.80;99.90;;;;;;5035215;28;20682;-75
2021/05/01 05:59:13;;;;;;;56.53;27.42;;;8.60;99.90;;;;;;5035869;28;20250;-75
2021/05/01 06:01:40;;;;;;;62.78;27.52;;;8.60;99.90;;;;;;5034313;28;20618;-75
2021/05/01 06:04:09;;;;;;;53.83;27.45;;;8.60;99.90;;;;;;5035331;28;20311;-76
2021/05/01 06:06:42;;;;;;;56.35;28.23;;;8.60;99.90;;;;;;5035141;28;20247;-76
2021/05/01 06:09:08;;;;;;;50.38;26.65;;;8.50;99.90;;;;;;5035619;28;20208;-75
2021/05/01 06:11:35;;;;;;;51.08;25.45;;;8.50;99.90;;;;;;5035688;28;20302;-75
2021/05/01 06:14:04;;;;;;;49.67;25.73;;;8.70;99.90;;;;;;5034969;28;20232;-76
2021/05/01 06:16:31;;;;;;;49.17;25.98;;;8.70;99.90;;;;;;5034928;28;20291;-75
2021/05/01 06:18:58;;;;;;;56.17;27.27;;;8.80;99.90;;;;;;5035111;28;20258;-76
2021/05/01 06:21:25;;;;;;;48.45;25.95;;;8.90;99.90;;;;;;5035432;28;20200;-76
2021/05/01 06:23:51;;;;;;;52.03;26.90;;;8.90;99.90;;;;;;5034892;28;20311;-76
2021/05/01 06:26:19;;;;;;;46.42;23.58;;;8.90;99.90;;;;;;5034938;28;20333;-76
2021/05/01 06:28:46;;;;;;;51.05;25.27;;;8.90;99.90;;;;;;5034711;28;20239;-75
2021/05/01 06:31:13;;;;;;;43.55;24.92;;;8.70;99.90;;;;;;5034928;28;20204;-75
2021/05/01 06:33:40;;;;;;;48.63;26.65;;;8.70;99.90;;;;;;5034964;28;20227;-75
2021/05/01 06:36:09;;;;;;;49.30;24.23;;;8.70;99.90;;;;;;5034920;28;20665;-76
2021/05/01 06:38:35;;;;;;;49.38;26.20;;;8.50;99.90;;;;;;5035074;28;20336;-75
2021/05/01 06:41:07;;;;;;;42.28;25.00;;;8.40;99.90;;;;;;5034411;28;20201;-75
2021/05/01 06:43:46;;;;;;;48.83;23.52;;;8.40;99.90;;;;;;5034834;28;20216;-75
2021/05/01 06:46:17;;;;;;;46.83;24.00;;;8.70;99.90;;;;;;5034402;28;20235;-75
2021/05/01 06:48:50;;;;;;;42.03;24.45;;;8.90;99.90;;;;;;5034942;28;20290;-75
2021/05/01 06:51:17;;;;;;;40.70;24.00;;;9.10;99.90;;;;;;5034974;28;20208;-75
2021/05/01 06:53:44;;;;;;;42.65;22.98;;;9.10;99.90;;;;;;5034175;28;20259;-76
2021/05/01 06:56:13;;;;;;;42.13;23.08;;;9.30;99.90;;;;;;5034342;28;20291;-75
2021/05/01 06:58:41;;;;;;;40.90;21.25;;;9.40;99.90;;;;;;5034762;28;20291;-75
2021/05/01 07:01:09;;;;;;;42.40;22.70;;;9.40;99.90;;;;;;5034615;28;20294;-75
2021/05/01 07:03:41;;;;;;;42.45;23.02;;;9.40;99.90;;;;;;5034346;28;20232;-75
2021/05/01 07:06:08;;;;;;;35.85;21.55;;;9.50;99.90;;;;;;5034667;28;20218;-75
2021/05/01 07:08:34;;;;;;;39.13;22.13;;;9.50;99.90;;;;;;5034126;28;20654;-76
2021/05/01 07:11:01;;;;;;;39.05;20.88;;;9.40;99.90;;;;;;5034381;28;20211;-75
2021/05/01 07:13:28;;;;;;;33.45;19.65;;;9.40;99.90;;;;;;5033757;28;20232;-76
2021/05/01 07:16:00;;;;;;;34.72;19.45;;;9.00;99.90;;;;;;5034344;28;20203;-75
2021/05/01 07:18:27;;;;;;;41.78;22.27;;;8.90;99.90;;;;;;5034530;28;20303;-76
2021/05/01 07:20:58;;;;;;;42.92;23.70;;;9.00;99.90;;;;;;5034112;28;20291;-73
2021/05/01 07:23:25;;;;;;;40.10;22.55;;;9.00;99.90;;;;;;5034101;28;20224;-75
2021/05/01 07:25:52;;;;;;;34.47;19.70;;;9.10;99.90;;;;;;5034078;28;20562;-75
2021/05/01 07:28:23;;;;;;;27.00;16.38;;;9.30;99.90;;;;;;5034065;28;20214;-75
2021/05/01 07:30:53;;;;;;;29.00;18.73;;;9.20;99.90;;;;;;5034258;28;20204;-75
2021/05/01 07:33:25;;;;;;;31.42;19.65;;;9.40;99.90;;;;;;5033501;28;20257;-75
2021/05/01 07:35:55;;;;;;;35.58;21.02;;;9.50;99.90;;;;;;5033655;28;20208;-75
2021/05/01 07:38:24;;;;;;;33.80;20.10;;;9.70;99.90;;;;;;5033906;28;20216;-75
2021/05/01 07:40:51;;;;;;;31.55;18.05;;;9.50;99.90;;;;;;5034079;28;20239;-75
2021/05/01 07:43:18;;;;;;;32.80;18.65;;;9.50;99.90;;;;;;5033730;28;20586;-75
2021/05/01 07:45:46;;;;;;;31.52;17.60;;;9.70;99.90;;;;;;5033565;28;20299;-75
2021/05/01 07:48:14;;;;;;;30.88;19.38;;;9.70;99.90;;;;;;5033784;28;20222;-75
2021/05/01 07:50:41;;;;;;;31.58;18.63;;;9.70;99.90;;;;;;5033673;28;20210;-75
2021/05/01 07:53:09;;;;;;;33.35;19.98;;;9.80;99.90;;;;;;5033796;28;20595;-75
2021/05/01 07:55:37;;;;;;;30.23;18.40;;;9.60;99.90;;;;;;5034027;28;20212;-75
2021/05/01 07:58:04;;;;;;;35.72;19.30;;;9.50;99.90;;;;;;5034019;28;20297;-75
2021/05/01 08:00:30;;;;;;;28.02;18.45;;;9.50;99.90;;;;;;5033665;28;20296;-75
2021/05/01 08:02:56;;;;;;;31.98;19.02;;;9.60;99.90;;;;;;5033306;28;20196;-75
2021/05/01 08:05:23;;;;;;;32.92;18.92;;;9.80;99.90;;;;;;5033755;28;20211;-76
2021/05/01 08:07:49;;;;;;;32.15;18.60;;;9.90;99.90;;;;;;5033803;28;20204;-75
2021/05/01 08:10:17;;;;;;;32.03;19.17;;;9.70;99.90;;;;;;5033870;28;20204;-75
2021/05/01 08:12:44;;;;;;;37.45;20.58;;;9.80;99.90;;;;;;5033675;28;20270;-75
2021/05/01 08:15:11;;;;;;;32.67;18.10;;;9.80;99.90;;;;;;5033420;28;20303;-76
2021/05/01 08:17:39;;;;;;;34.05;18.80;;;9.70;99.90;;;;;;5033413;28;20200;-75
2021/05/01 08:20:06;;;;;;;32.03;19.13;;;9.40;99.90;;;;;;5033656;28;20215;-75
2021/05/01 08:22:33;;;;;;;28.35;18.05;;;9.20;99.90;;;;;;5033596;28;20643;-75
2021/05/01 08:24:59;;;;;;;25.90;16.45;;;9.30;99.90;;;;;;5035550;28;20637;-76
2021/05/01 08:27:26;;;;;;;30.42;16.85;;;9.50;99.90;;;;;;5036806;28;20212;-75
2021/05/01 08:29:53;;;;;;;34.45;18.77;;;9.60;99.90;;;;;;5037306;28;20207;-76
2021/05/01 08:32:19;;;;;;;30.35;16.52;;;9.60;99.90;;;;;;5036754;28;20230;-76
2021/05/01 08:34:46;;;;;;;32.95;19.33;;;9.80;99.90;;;;;;5037484;28;20259;-76
2021/05/01 08:37:12;;;;;;;29.90;18.23;;;10.00;99.90;;;;;;5037235;28;20287;-76
2021/05/01 08:39:38;;;;;;;29.70;17.60;;;9.90;99.90;;;;;;5036786;28;20294;-75
2021/05/01 08:42:05;;;;;;;31.27;19.13;;;9.80;99.90;;;;;;5036763;28;20553;-76
2021/05/01 08:44:31;;;;;;;28.20;17.60;;;9.90;99.90;;;;;;5036822;28;20224;-75
2021/05/01 08:46:59;;;;;;;35.67;19.65;;;10.00;99.90;;;;;;5036945;28;20554;-76
2021/05/01 08:49:26;;;;;;;27.48;16.77;;;9.90;99.90;;;;;;5036656;28;20208;-75
2021/05/01 08:51:52;;;;;;;30.33;17.73;;;9.90;99.90;;;;;;5037160;28;20204;-75
2021/05/01 08:54:19;;;;;;;32.80;18.48;;;10.00;99.90;;;;;;5037136;28;20618;-75
2021/05/01 08:56:45;;;;;;;28.35;16.60;;;10.10;99.90;;;;;;5036617;28;20232;-76
2021/05/01 08:59:12;;;;;;;24.23;16.23;;;10.10;99.90;;;;;;5036850;28;20295;-75
2021/05/01 09:01:39;;;;;;;29.30;16.73;;;10.00;99.90;;;;;;5036566;28;20200;-75
2021/05/01 09:04:07;;;;;;;29.65;16.33;;;9.90;99.90;;;;;;5036771;28;20617;-75
2021/05/01 09:06:34;;;;;;;28.88;17.80;;;10.00;99.90;;;;;;5036328;28;20734;-75
2021/05/01 09:09:04;;;;;;;30.75;16.48;;;10.10;99.90;;;;;;5036392;28;20741;-76
2021/05/01 09:11:38;;;;;;;26.92;16.77;;;10.30;99.90;;;;;;5036574;28;20299;-75
2021/05/01 09:14:22;;;;;;;27.10;15.88;;;10.50;99.90;;;;;;5036376;28;20281;-75
2021/05/01 09:16:59;;;;;;;26.02;16.45;;;10.50;99.90;;;;;;5035978;28;20211;-76
2021/05/01 09:19:34;;;;;;;26.08;15.88;;;10.50;99.90;;;;;;5036226;28;20204;-75
2021/05/01 09:22:03;;;;;;;24.48;15.52;;;10.60;99.90;;;;;;5036385;28;20383;-76
2021/05/01 09:24:29;;;;;;;26.73;16.48;;;10.80;99.90;;;;;;5036505;28;20259;-75
2021/05/01 09:26:57;;;;;;;28.27;17.65;;;11.00;99.90;;;;;;5036273;28;20317;-75
2021/05/01 09:29:32;;;;;;;29.88;16.17;;;11.20;99.90;;;;;;5030973;28;20208;-75
2021/05/01 09:32:01;;;;;;;27.73;17.00;;;11.30;99.90;;;;;;5026796;28;20226;-75
2021/05/01 09:34:44;;;;;;;31.52;17.70;;;11.30;99.90;;;;;;5034939;28;20220;-75
2021/05/01 09:37:11;;;;;;;28.00;16.83;;;11.30;99.90;;;;;;5034262;28;20208;-74
2021/05/01 09:39:47;;;;;;;26.13;15.05;;;11.20;99.90;;;;;;5034587;28;20765;-75
2021/05/01 09:42:16;;;;;;;23.60;14.48;;;11.40;99.90;;;;;;5034243;28;20199;-74
2021/05/01 09:44:43;;;;;;;25.70;16.08;;;11.50;99.90;;;;;;5034112;28;20227;-74
2021/05/01 09:47:13;;;;;;;27.95;17.02;;;11.60;99.90;;;;;;5034295;28;20235;-74
2021/05/01 09:49:41;;;;;;;27.80;16.15;;;11.60;99.90;;;;;;5034561;28;20261;-74
2021/05/01 09:52:09;;;;;;;28.90;16.98;;;11.70;99.90;;;;;;5033973;28;20570;-74
2021/05/01 09:54:37;;;;;;;26.25;16.35;;;11.70;99.90;;;;;;5033964;28;20238;-74
2021/05/01 09:57:05;;;;;;;27.02;17.80;;;11.90;99.90;;;;;;5033953;28;20586;-74
2021/05/01 09:59:38;;;;;;;26.17;16.30;;;12.00;99.90;;;;;;5034173;28;20250;-73
2021/05/01 10:02:04;;;;;;;24.10;15.25;;;12.10;99.90;;;;;;5034228;28;20247;-77
2021/05/01 10:04:31;;;;;;;28.20;16.92;;;12.30;99.90;;;;;;5034076;28;20269;-74
2021/05/01 10:07:01;;;;;;;31.95;17.38;;;12.30;99.90;;;;;;5033917;28;20273;-74
2021/05/01 10:09:28;;;;;;;30.67;17.23;;;12.10;99.90;;;;;;5034190;28;20208;-73
2021/05/01 10:12:04;;;;;;;23.45;15.38;;;12.10;99.90;;;;;;5034000;28;20349;-73
2021/05/01 10:14:42;;;;;;;28.98;17.63;;;12.30;99.90;;;;;;5033651;28;20593;-74
2021/05/01 10:17:10;;;;;;;23.42;15.75;;;12.70;99.90;;;;;;5033784;28;20231;-75
2021/05/01 10:19:49;;;;;;;26.92;15.60;;;13.20;99.90;;;;;;5033802;28;20291;-75
2021/05/01 10:22:26;;;;;;;26.63;16.23;;;13.30;99.90;;;;;;5033939;28;20286;-73
2021/05/01 10:24:53;;;;;;;25.67;16.73;;;12.80;99.90;;;;;;5033346;28;20223;-74
2021/05/01 10:27:19;;;;;;;25.95;16.20;;;12.90;99.90;;;;;;5033397;28;20290;-76
2021/05/01 10:30:00;;;;;;;25.25;16.00;;;13.00;99.90;;;;;;5033695;28;20204;-75
2021/05/01 10:32:29;;;;;;;27.25;16.50;;;13.10;99.90;;;;;;5033248;28;20797;-75
2021/05/01 10:34:57;;;;;;;29.65;17.15;;;13.20;99.90;;;;;;5033292;28;20322;-74
2021/05/01 10:37:29;;;;;;;26.58;17.15;;;12.70;99.90;;;;;;5033393;28;20204;-74
2021/05/01 10:39:57;;;;;;;30.92;19.02;;;12.80;99.90;;;;;;5033617;28;20294;-74
2021/05/01 10:42:24;;;;;;;28.42;18.10;;;12.80;99.90;;;;;;5033285;28;20290;-74
2021/05/01 10:44:56;;;;;;;28.75;17.23;;;12.80;99.90;;;;;;5033221;28;20223;-74
2021/05/01 10:47:22;;;;;;;25.20;16.63;;;12.70;99.90;;;;;;5032501;28;20306;-74
2021/05/01 10:49:49;;;;;;;28.17;17.23;;;13.00;99.90;;;;;;5033120;28;20208;-76
2021/05/01 10:52:17;;;;;;;29.35;18.05;;;13.10;99.90;;;;;;5032870;28;20208;-75
2021/05/01 10:55:02;;;;;;;27.73;17.50;;;13.40;99.90;;;;;;5032780;28;20645;-74
2021/05/01 10:57:29;;;;;;;36.67;18.13;;;13.30;99.90;;;;;;5032981;28;20619;-75
2021/05/01 11:00:00;;;;;;;31.85;18.50;;;12.90;99.90;;;;;;5033005;28;20341;-75
2021/05/01 11:02:34;;;;;;;27.80;17.88;;;12.50;99.90;;;;;;5032720;28;20211;-74
2021/05/01 11:05:02;;;;;;;27.55;17.23;;;12.30;99.90;;;;;;5032804;28;20224;-74
2021/05/01 11:07:42;;;;;;;31.20;19.17;;;12.30;99.90;;;;;;5032516;28;20290;-74
2021/05/01 11:10:15;;;;;;;28.83;17.45;;;12.10;99.90;;;;;;5032954;28;20295;-77
2021/05/01 11:12:50;;;;;;;30.80;18.65;;;11.90;99.90;;;;;;5032736;28;20224;-76
2021/05/01 11:15:18;;;;;;;30.15;18.10;;;11.60;99.90;;;;;;5032659;28;20204;-76
2021/05/01 11:17:51;;;;;;;28.67;18.10;;;11.50;99.90;;;;;;5032652;28;20204;-76
2021/05/01 11:20:20;;;;;;;26.95;17.77;;;11.70;99.90;;;;;;5032493;28;20204;-76
2021/05/01 11:22:50;;;;;;;31.05;16.92;;;11.60;99.90;;;;;;5032604;28;20196;-76
2021/05/01 11:25:19;;;;;;;30.63;18.23;;;11.90;99.90;;;;;;5032421;28;20210;-76
2021/05/01 11:27:47;;;;;;;28.20;17.33;;;12.20;99.90;;;;;;5032353;28;20298;-73
2021/05/01 11:30:16;;;;;;;29.00;18.52;;;12.30;99.90;;;;;;5032439;28;20628;-72
2021/05/01 11:32:43;;;;;;;29.42;18.48;;;12.50;99.90;;;;;;5031916;28;20259;-72
2021/05/01 11:35:11;;;;;;;28.17;18.20;;;12.40;99.90;;;;;;5032258;28;20204;-73
2021/05/01 11:37:40;;;;;;;29.45;19.05;;;11.70;99.90;;;;;;5031967;28;20287;-72
2021/05/01 11:40:08;;;;;;;29.20;17.30;;;11.60;99.90;;;;;;5032305;28;20294;-72
2021/05/01 11:42:36;;;;;;;29.70;18.23;;;11.60;99.90;;;;;;5032148;28;20206;-73
2021/05/01 11:45:06;;;;;;;27.42;18.17;;;11.90;99.90;;;;;;5032024;28;20262;-73
2021/05/01 11:47:35;;;;;;;27.88;18.30;;;12.10;99.90;;;;;;5032378;28;20301;-73
2021/05/01 11:50:01;;;;;;;32.00;18.33;;;12.00;99.90;;;;;;5032231;28;20214;-74
2021/05/01 11:52:40;;;;;;;29.13;18.10;;;12.00;99.90;;;;;;5032022;28;20291;-73
2021/05/01 11:55:24;;;;;;;30.45;17.30;;;12.10;99.90;;;;;;5032170;28;20298;-73
2021/05/01 11:57:55;;;;;;;31.98;18.77;;;12.10;99.90;;;;;;5032268;28;20279;-73
2021/05/01 12:00:29;;;;;;;32.80;18.55;;;12.30;99.90;;;;;;5036030;28;20208;-73
2021/05/01 12:02:56;;;;;;;31.58;18.90;;;12.00;99.90;;;;;;5037642;28;20242;-74
2021/05/01 12:05:24;;;;;;;32.55;18.33;;;12.00;99.90;;;;;;5037954;28;20207;-73
2021/05/01 12:07:57;;;;;;;31.52;19.42;;;12.00;99.90;;;;;;5037196;28;20234;-74
2021/05/01 12:10:24;;;;;;;31.52;19.55;;;12.10;99.90;;;;;;5037570;28;20291;-75
2021/05/01 12:12:58;;;;;;;33.97;18.80;;;12.20;99.90;;;;;;5037494;28;20693;-74
2021/05/01 12:15:32;;;;;;;30.35;18.17;;;12.10;99.90;;;;;;5037723;28;20585;-74
2021/05/01 12:17:59;;;;;;;33.50;21.27;;;12.00;99.90;;;;;;5037690;28;20729;-74
2021/05/01 12:20:29;;;;;;;28.83;18.95;;;12.10;99.90;;;;;;5037317;28;20214;-72
2021/05/01 12:23:01;;;;;;;32.67;19.10;;;12.00;99.90;;;;;;5037190;28;20282;-75
2021/05/01 12:25:45;;;;;;;31.98;19.13;;;12.10;99.90;;;;;;5037446;28;20196;-75
2021/05/01 12:28:13;;;;;;;33.25;18.27;;;12.20;99.90;;;;;;5037527;28;20287;-74
2021/05/01 12:31:01;;;;;;;29.15;18.77;;;12.00;99.90;;;;;;5037516;28;20725;-75
2021/05/01 12:33:52;;;;;;;32.30;18.35;;;12.30;99.90;;;;;;5036782;28;20251;-74
2021/05/01 12:36:23;;;;;;;29.17;19.33;;;12.20;99.90;;;;;;5036860;28;20294;-74
2021/05/01 12:38:50;;;;;;;32.17;19.25;;;12.00;99.90;;;;;;5037460;28;20199;-74